createdAt,value
2022-08-26T00:01:29.805Z,100157.88
2022-08-26T00:06:38.067Z,100163.19
2022-08-26T00:12:12.470Z,100158.06
2022-08-26T00:17:20.841Z,100156.06
2022-08-26T00:22:29.787Z,100151.34
2022-08-26T00:27:40.106Z,100142.34
2022-08-26T00:32:44.321Z,100151.41
2022-08-26T00:37:59.295Z,100145.50
2022-08-26T00:43:09.753Z,100142.88
2022-08-26T00:48:20.263Z,100135.50
2022-08-26T00:53:32.627Z,100136.75
2022-08-26T00:59:20.050Z,100134.72
2022-08-26T01:04:26.096Z,100138.41
2022-08-26T01:09:54.031Z,100134.53
2022-08-26T01:15:14.092Z,100137.78
2022-08-26T01:20:34.232Z,100138.00
2022-08-26T01:26:04.948Z,100139.84
2022-08-26T01:31:20.683Z,100123.28
2022-08-26T01:36:25.917Z,100127.19
2022-08-26T01:41:40.073Z,100140.53
2022-08-26T01:46:59.147Z,100134.38
2022-08-26T01:52:10.783Z,100131.91
2022-08-26T01:57:30.763Z,100129.66
2022-08-26T02:02:38.185Z,100132.34
2022-08-26T02:07:45.186Z,100137.06
2022-08-26T02:13:00.737Z,100136.88
2022-08-26T02:18:08.944Z,100138.09
2022-08-26T02:23:24.384Z,100130.69
2022-08-26T02:28:50.070Z,100132.75
2022-08-26T02:34:10.725Z,100135.22
2022-08-26T02:39:33.234Z,100129.06
2022-08-26T02:44:47.933Z,100120.66
2022-08-26T02:49:54.978Z,100123.97
2022-08-26T02:55:08.467Z,100114.31
2022-08-26T03:00:53.154Z,100111.28
2022-08-26T03:06:09.001Z,100102.06
2022-08-26T03:11:16.205Z,100106.97
2022-08-26T03:16:32.297Z,100102.25
2022-08-26T03:21:43.426Z,100096.75
2022-08-26T03:26:58.829Z,100089.97
2022-08-26T03:32:11.491Z,100088.16
2022-08-26T03:37:22.420Z,100091.25
2022-08-26T03:42:29.071Z,100098.78
2022-08-26T03:47:38.219Z,100092.63
2022-08-26T03:52:48.234Z,100094.91
2022-08-26T03:57:57.936Z,100092.84
2022-08-26T04:03:15.658Z,100093.88
2022-08-26T04:08:23.822Z,100098.81
2022-08-26T04:13:36.148Z,100093.88
2022-08-26T04:18:47.717Z,100103.75
2022-08-26T04:23:52.872Z,100102.50
2022-08-26T04:29:02.313Z,100099.22
2022-08-26T04:34:17.663Z,100107.22
2022-08-26T04:39:27.570Z,100097.16
2022-08-26T04:44:34.077Z,100097.59
2022-08-26T04:49:41.101Z,100094.69
2022-08-26T04:54:47.202Z,100090.59
2022-08-26T04:59:53.844Z,100087.91
2022-08-26T05:05:09.148Z,100091.63
2022-08-26T05:10:32.338Z,100093.66
2022-08-26T05:15:37.976Z,100097.53
2022-08-26T05:20:48.112Z,100104.66
2022-08-26T05:25:59.274Z,100097.25
2022-08-26T05:31:16.060Z,100102.97
2022-08-26T05:36:32.034Z,100110.91
2022-08-26T05:41:38.710Z,100110.47
2022-08-26T05:46:46.166Z,100109.72
2022-08-26T05:51:52.829Z,100111.53
2022-08-26T05:56:57.596Z,100104.91
2022-08-26T06:02:06.314Z,100106.78
2022-08-26T06:07:17.076Z,100105.06
2022-08-26T06:12:28.520Z,100109.66
2022-08-26T06:18:00.809Z,100114.53
2022-08-26T06:23:27.209Z,100110.78
2022-08-26T06:28:36.153Z,100107.22
2022-08-26T06:33:44.374Z,100109.47
2022-08-26T06:38:55.321Z,100101.91
2022-08-26T06:44:08.876Z,100110.19
2022-08-26T06:49:18.189Z,100117.91
2022-08-26T07:00:22.667Z,100115.34
2022-08-26T07:05:45.399Z,100112.22
2022-08-26T07:10:53.524Z,100105.50
2022-08-26T07:16:09.698Z,100105.25
2022-08-26T07:21:25.349Z,100104.13
2022-08-26T07:26:33.125Z,100119.13
2022-08-26T07:31:43.787Z,100109.72
2022-08-26T07:36:56.218Z,100111.63
2022-08-26T07:42:07.475Z,100110.59
2022-08-26T07:47:24.913Z,100114.69
2022-08-26T07:52:33.139Z,100126.25
2022-08-26T07:57:43.635Z,100108.84
2022-08-26T08:02:52.586Z,100104.41
2022-08-26T08:08:26.875Z,100101.06
2022-08-26T08:13:35.712Z,100113.84
2022-08-26T08:18:47.171Z,100104.81
2022-08-26T08:23:55.912Z,100101.56
2022-08-26T08:29:06.950Z,100099.84
2022-08-26T08:34:32.714Z,100089.59
2022-08-26T08:39:39.637Z,100080.59
2022-08-26T08:45:11.191Z,100076.34
2022-08-26T08:50:34.668Z,100067.47
2022-08-26T08:55:54.370Z,100078.38
2022-08-26T09:01:20.224Z,100076.22
2022-08-26T09:06:31.362Z,100064.66
2022-08-26T09:11:44.805Z,100064.44
2022-08-26T09:17:11.418Z,100054.75
2022-08-26T09:22:35.187Z,100055.56
2022-08-26T09:27:50.456Z,100055.34
2022-08-26T09:33:10.063Z,100047.22
2022-08-26T09:38:26.774Z,100050.16
2022-08-26T09:43:32.696Z,100047.44
2022-08-26T09:48:51.800Z,100041.44
2022-08-26T09:54:08.014Z,100028.81
2022-08-26T09:59:14.112Z,100023.44
2022-08-26T10:04:31.085Z,100015.63
2022-08-26T10:09:41.637Z,100002.75
2022-08-26T10:14:52.575Z,99997.91
2022-08-26T10:20:22.919Z,99982.00
2022-08-26T10:25:34.350Z,99966.03
2022-08-26T10:30:49.578Z,99960.38
2022-08-26T10:36:03.523Z,99958.00
2022-08-26T10:41:20.008Z,99945.06
2022-08-26T10:46:44.826Z,99942.94
2022-08-26T10:52:00.452Z,99923.16
2022-08-26T10:57:19.447Z,99909.66
2022-08-26T11:02:37.798Z,99902.94
2022-08-26T11:07:52.060Z,99903.50
2022-08-26T11:13:04.050Z,99888.63
2022-08-26T11:18:14.597Z,99885.06
2022-08-26T11:23:50.733Z,99867.22
2022-08-26T11:29:05.081Z,99867.75
2022-08-26T11:34:21.255Z,99876.34
2022-08-26T11:39:31.921Z,99869.53
2022-08-26T11:44:49.279Z,99868.94
2022-08-26T11:50:09.731Z,99861.59
2022-08-26T11:55:23.241Z,99854.59
2022-08-26T12:00:33.829Z,99857.78
2022-08-26T12:05:53.370Z,99882.03
2022-08-26T12:11:30.616Z,99877.81
2022-08-26T12:22:50.695Z,99893.63
2022-08-26T12:28:06.491Z,99918.22
2022-08-26T12:33:22.840Z,99896.78
2022-08-26T12:38:43.799Z,99896.88
2022-08-26T12:44:08.847Z,99905.91
2022-08-26T12:49:27.648Z,99891.31
2022-08-26T12:54:57.028Z,99896.25
2022-08-26T13:00:33.244Z,99896.50
2022-08-26T13:05:42.638Z,99902.88
2022-08-26T13:11:05.356Z,99915.78
2022-08-26T13:16:16.871Z,99900.88
2022-08-26T13:21:37.396Z,99890.16
2022-08-26T13:26:47.698Z,99886.78
2022-08-26T13:31:54.299Z,99901.50
2022-08-26T13:37:29.325Z,99909.81
2022-08-26T13:42:52.812Z,99922.91
2022-08-26T13:48:05.187Z,99923.03
2022-08-26T13:53:17.162Z,99931.00
2022-08-26T13:58:21.331Z,99934.56
2022-08-26T14:03:32.484Z,99937.88
2022-08-26T14:08:49.361Z,99954.34
2022-08-26T14:13:56.766Z,99960.19
2022-08-26T14:19:15.499Z,99949.72
2022-08-26T14:24:25.284Z,99937.38
2022-08-26T14:29:38.754Z,99922.59
2022-08-26T14:34:45.725Z,99908.06
2022-08-26T14:39:55.472Z,99891.75
2022-08-26T14:45:16.124Z,99860.25
2022-08-26T14:50:29.014Z,99840.13
2022-08-26T14:55:39.138Z,99825.41
2022-08-26T15:00:45.470Z,99810.88
2022-08-26T15:11:30.530Z,99795.13
2022-08-26T15:16:38.183Z,99801.28
2022-08-26T15:22:03.639Z,99795.69
2022-08-26T15:32:34.743Z,99806.47
2022-08-26T15:37:42.080Z,99813.78
2022-08-26T15:42:54.337Z,99810.72
2022-08-26T15:48:06.388Z,99823.75
2022-08-26T15:53:31.035Z,99833.41
2022-08-26T15:59:07.205Z,99840.31
2022-08-26T16:04:34.408Z,99830.53
2022-08-26T16:09:45.440Z,99830.97
2022-08-26T16:15:01.628Z,99831.72
2022-08-26T16:20:08.882Z,99842.75
2022-08-26T16:25:20.055Z,99848.59
2022-08-26T16:36:01.464Z,99855.63
2022-08-26T16:41:11.391Z,99854.16
2022-08-26T16:46:26.031Z,99849.97
2022-08-26T16:51:36.552Z,99864.09
2022-08-26T16:56:56.564Z,99867.81
2022-08-26T17:02:01.826Z,99859.81
2022-08-26T17:07:07.244Z,99862.88
2022-08-26T17:12:20.788Z,99870.09
2022-08-26T17:17:28.328Z,99870.00
2022-08-26T17:22:40.760Z,99859.94
2022-08-26T17:27:57.560Z,99869.72
2022-08-26T17:33:10.607Z,99859.97
2022-08-26T17:38:24.862Z,99846.91
2022-08-26T17:43:38.242Z,99842.97
2022-08-26T17:48:50.665Z,99847.66
2022-08-26T17:54:00.912Z,99854.06
2022-08-26T17:59:18.656Z,99854.50
2022-08-26T18:04:24.173Z,99838.44
2022-08-26T18:09:36.592Z,99844.34
2022-08-26T18:14:57.276Z,99846.19
2022-08-26T18:20:18.500Z,99834.41
2022-08-26T18:25:32.383Z,99830.22
2022-08-26T18:30:47.101Z,99854.75
2022-08-26T18:41:15.588Z,99848.72
2022-08-26T18:46:41.146Z,99842.31
2022-08-26T18:51:48.104Z,99845.66
2022-08-26T18:56:57.361Z,99843.09
2022-08-26T19:02:07.666Z,99853.88
2022-08-26T19:07:12.076Z,99861.16
2022-08-26T19:12:21.758Z,99864.28
2022-08-26T19:17:28.011Z,99870.63
2022-08-26T19:22:34.905Z,99893.06
2022-08-26T19:27:46.664Z,99896.19
2022-08-26T19:32:57.497Z,99897.47
2022-08-26T19:38:07.544Z,99918.25
2022-08-26T19:43:21.530Z,99915.44
2022-08-26T19:48:32.424Z,99918.78
2022-08-26T19:53:40.039Z,99906.13
2022-08-26T19:58:53.229Z,99901.81
2022-08-26T20:04:05.264Z,99904.09
2022-08-26T20:09:14.685Z,99897.34
2022-08-26T20:14:23.083Z,99891.28
2022-08-26T20:19:45.126Z,99894.59
2022-08-26T20:24:57.657Z,99907.16
2022-08-26T20:30:05.186Z,99907.16
2022-08-26T20:35:21.914Z,99899.81
2022-08-26T20:40:47.324Z,99906.03
2022-08-26T20:45:58.903Z,99909.38
2022-08-26T20:51:22.775Z,99906.75
2022-08-26T20:56:33.099Z,99909.09
2022-08-26T21:01:42.645Z,99907.91
2022-08-26T21:12:24.219Z,99913.53
2022-08-26T21:17:33.967Z,99908.19
2022-08-26T21:22:47.113Z,99902.84
2022-08-26T21:28:22.274Z,99902.25
2022-08-26T21:39:27.915Z,99897.22
2022-08-26T21:44:34.180Z,99910.41
2022-08-26T21:49:45.082Z,99919.06
2022-08-26T21:55:11.783Z,99921.34
2022-08-26T22:00:28.817Z,99920.78
2022-08-26T22:05:57.237Z,99914.25
2022-08-26T22:11:27.073Z,99915.34
2022-08-26T22:16:37.043Z,99922.56
2022-08-26T22:21:49.058Z,99929.34
2022-08-26T22:27:01.072Z,99912.56
2022-08-26T22:32:24.047Z,99910.78
2022-08-26T22:37:35.252Z,99916.75
2022-08-26T22:42:55.437Z,99917.59
2022-08-26T22:48:05.130Z,99916.41
2022-08-26T22:53:18.497Z,99929.75
2022-08-26T22:58:33.677Z,99928.34
2022-08-26T23:03:57.727Z,99933.50
2022-08-26T23:09:09.938Z,99909.94
2022-08-26T23:14:19.980Z,99904.22
2022-08-26T23:19:29.698Z,99898.25
2022-08-26T23:24:54.872Z,99895.84
2022-08-26T23:30:30.837Z,99892.13
2022-08-26T23:35:48.314Z,99886.41
2022-08-26T23:41:03.712Z,99891.75
2022-08-26T23:46:25.182Z,99887.25
2022-08-26T23:51:46.945Z,99875.34
2022-08-26T23:56:55.476Z,99877.00
